Time;durP1;ratioP1;P1;durP2;ratioP2;P2;SDS_P1;SDS_P2;PMS_P1;PMS_P2;Temp;Humidity;BMP_temperature;BMP_pressure;BME280_temperature;BME280_humidity;BME280_pressure;Samples;Min_cycle;Max_cycle;Signal;HPM_P1;HPM_P2
2023/03/31 00:00:02;;;;;;;4.97;2.83;;;10.10;99.90;;;;;;5159472;28;20485;-53
2023/03/31 00:02:35;;;;;;;3.60;1.87;;;10.10;99.90;;;;;;5144760;28;20185;-52
2023/03/31 00:05:08;;;;;;;3.07;2.27;;;10.10;99.90;;;;;;5161514;28;20445;-52
2023/03/31 00:07:38;;;;;;;4.63;2.33;;;10.10;99.90;;;;;;5140181;28;20530;-53
2023/03/31 00:10:09;;;;;;;5.07;2.00;;;10.10;99.90;;;;;;5158870;28;20951;-52
2023/03/31 00:12:40;;;;;;;4.77;2.40;;;10.20;99.90;;;;;;5160028;28;20239;-52
2023/03/31 00:15:11;;;;;;;3.07;2.13;;;10.20;99.90;;;;;;5160396;28;20428;-52
2023/03/31 00:17:42;;;;;;;1.97;1.83;;;10.30;99.90;;;;;;5165490;28;20208;-51
2023/03/31 00:20:13;;;;;;;2.03;1.93;;;10.20;99.90;;;;;;5161061;28;20490;-50
2023/03/31 00:22:46;;;;;;;3.13;2.07;;;10.20;99.90;;;;;;5161083;28;20432;-53
2023/03/31 00:25:16;;;;;;;2.87;1.87;;;10.30;99.90;;;;;;5162690;28;20492;-51
2023/03/31 00:27:49;;;;;;;5.00;1.90;;;10.30;99.90;;;;;;5163866;28;20551;-51
2023/03/31 00:30:19;;;;;;;7.47;1.87;;;10.30;99.90;;;;;;5159552;28;20284;-52
2023/03/31 00:32:50;;;;;;;2.87;2.10;;;10.30;99.90;;;;;;5161698;28;20527;-51
2023/03/31 00:35:21;;;;;;;2.00;1.57;;;10.30;99.90;;;;;;5160930;28;20188;-51
2023/03/31 00:37:52;;;;;;;2.50;1.80;;;10.30;99.90;;;;;;5159519;28;20221;-51
2023/03/31 00:40:23;;;;;;;6.77;2.70;;;10.30;99.90;;;;;;5163691;28;20212;-52
2023/03/31 00:42:53;;;;;;;4.73;1.77;;;10.30;99.90;;;;;;5163343;28;20432;-51
2023/03/31 00:45:29;;;;;;;7.80;2.20;;;10.30;99.90;;;;;;5161890;28;20189;-51
2023/03/31 00:48:10;;;;;;;5.60;2.03;;;10.30;99.90;;;;;;5161852;28;20590;-53
2023/03/31 00:50:47;;;;;;;5.70;2.47;;;10.30;99.90;;;;;;5162752;28;20447;-53
2023/03/31 00:53:24;;;;;;;2.57;1.70;;;10.30;99.90;;;;;;5169461;28;20428;-52
2023/03/31 00:56:00;;;;;;;9.33;2.43;;;10.30;99.90;;;;;;5168562;28;20521;-52
2023/03/31 00:58:32;;;;;;;2.33;1.30;;;10.30;99.90;;;;;;5166844;28;20459;-51
2023/03/31 01:01:03;;;;;;;3.30;1.77;;;10.20;99.90;;;;;;5146562;28;20468;-51
2023/03/31 01:03:33;;;;;;;2.07;1.80;;;10.20;99.90;;;;;;5165493;28;20878;-52
2023/03/31 01:06:09;;;;;;;8.00;1.87;;;10.10;99.90;;;;;;5163953;28;20273;-51
2023/03/31 01:08:41;;;;;;;6.90;1.20;;;10.10;99.90;;;;;;5135429;28;20242;-51
2023/03/31 01:11:15;;;;;;;6.73;1.40;;;10.20;99.90;;;;;;5170436;28;20442;-52
2023/03/31 01:13:49;;;;;;;1.57;1.30;;;10.10;99.90;;;;;;5171481;28;20432;-52
2023/03/31 01:16:20;;;;;;;4.37;1.73;;;10.10;99.90;;;;;;5168441;28;20435;-51
2023/03/31 01:18:51;;;;;;;7.13;1.63;;;10.00;99.90;;;;;;5165933;28;20464;-52
2023/03/31 01:21:58;;;;;;;1.47;1.40;;;10.00;99.90;;;;;;5165163;28;20192;-53
2023/03/31 01:25:00;;;;;;;3.60;1.40;;;9.90;99.90;;;;;;5164142;28;20177;-51
2023/03/31 01:27:47;;;;;;;9.00;1.87;;;9.70;99.90;;;;;;5154907;28;20506;-50
2023/03/31 01:30:33;;;;;;;6.80;1.40;;;9.60;99.90;;;;;;5163507;28;20785;-53
2023/03/31 01:33:24;;;;;;;1.60;1.23;;;9.50;99.90;;;;;;5167364;28;20463;-52
2023/03/31 01:36:15;;;;;;;4.13;1.67;;;9.40;99.90;;;;;;5165959;28;20435;-51
2023/03/31 01:39:14;;;;;;;9.80;1.80;;;9.20;99.90;;;;;;5163954;28;20495;-51
2023/03/31 01:42:06;;;;;;;10.23;1.60;;;9.20;99.90;;;;;;5165644;28;20451;-53
2023/03/31 01:45:01;;;;;;;7.63;1.47;;;9.20;99.90;;;;;;5166387;28;20440;-51
2023/03/31 01:47:39;;;;;;;2.47;1.57;;;9.10;99.90;;;;;;5163665;28;20534;-51
2023/03/31 01:50:31;;;;;;;7.40;1.93;;;9.20;99.90;;;;;;5167093;28;20460;-53
2023/03/31 01:53:27;;;;;;;4.17;2.10;;;9.20;99.90;;;;;;5165032;28;20491;-50
2023/03/31 01:56:10;;;;;;;6.10;1.90;;;9.20;99.90;;;;;;5165465;28;20443;-51
2023/03/31 01:58:50;;;;;;;4.37;1.47;;;9.30;99.90;;;;;;5164761;28;20463;-51
2023/03/31 02:01:25;;;;;;;2.93;1.40;;;9.30;99.90;;;;;;5166226;28;20445;-51
2023/03/31 02:04:06;;;;;;;4.63;1.27;;;9.30;99.90;;;;;;5166568;28;20431;-53
2023/03/31 02:06:45;;;;;;;2.67;1.57;;;9.30;99.90;;;;;;5165791;28;20511;-52
2023/03/31 02:09:21;;;;;;;1.27;1.17;;;9.30;99.90;;;;;;5165580;28;20494;-51
2023/03/31 02:11:55;;;;;;;4.03;1.37;;;9.40;99.90;;;;;;5160324;28;20468;-52
2023/03/31 02:14:30;;;;;;;7.27;1.80;;;9.40;99.90;;;;;;5165415;28;20443;-51
2023/03/31 02:17:03;;;;;;;8.20;1.80;;;9.40;99.90;;;;;;5164570;28;20443;-52
2023/03/31 02:19:39;;;;;;;1.50;1.40;;;9.40;99.90;;;;;;5164524;28;20502;-53
2023/03/31 02:22:12;;;;;;;4.50;1.40;;;9.40;99.90;;;;;;5164085;28;20439;-50
2023/03/31 02:24:44;;;;;;;7.03;1.53;;;9.50;99.90;;;;;;5166890;28;20435;-51
2023/03/31 02:27:41;;;;;;;3.03;1.20;;;9.50;99.90;;;;;;5165798;28;20468;-51
2023/03/31 02:30:12;;;;;;;3.57;2.57;;;9.60;99.90;;;;;;5162150;28;20440;-51
2023/03/31 02:32:45;;;;;;;5.13;1.23;;;9.50;99.90;;;;;;5164438;28;20440;-52
2023/03/31 02:35:18;;;;;;;1.00;1.00;;;9.50;99.90;;;;;;5165246;28;20428;-50
2023/03/31 02:37:50;;;;;;;8.77;1.83;;;9.60;99.90;;;;;;5156925;28;20475;-52
2023/03/31 02:40:21;;;;;;;2.30;1.23;;;9.60;99.90;;;;;;5162480;28;20456;-52
2023/03/31 02:42:52;;;;;;;4.37;1.00;;;9.70;99.90;;;;;;5165037;28;20468;-52
2023/03/31 02:45:35;;;;;;;1.00;1.00;;;9.80;99.90;;;;;;5165697;28;20463;-51
2023/03/31 02:48:28;;;;;;;3.37;1.70;;;9.80;99.90;;;;;;5163996;28;20987;-52
2023/03/31 02:51:07;;;;;;;7.90;2.13;;;9.80;99.90;;;;;;5166053;28;20561;-52
2023/03/31 02:54:06;;;;;;;10.90;1.73;;;9.90;99.90;;;;;;5165724;28;20424;-51
2023/03/31 02:57:01;;;;;;;2.23;1.50;;;9.80;99.90;;;;;;5166486;28;20507;-50
2023/03/31 02:59:48;;;;;;;1.93;1.40;;;9.80;99.90;;;;;;5162348;28;20468;-52
2023/03/31 03:02:47;;;;;;;2.70;1.30;;;9.90;99.90;;;;;;5178477;28;20424;-51
2023/03/31 03:05:48;;;;;;;5.43;1.00;;;9.90;99.90;;;;;;5160034;28;20771;-50
2023/03/31 03:08:34;;;;;;;9.33;1.47;;;9.90;99.90;;;;;;5159831;28;20530;-52
2023/03/31 03:11:30;;;;;;;2.60;1.00;;;9.90;99.90;;;;;;5161888;28;20469;-51
2023/03/31 03:14:30;;;;;;;2.10;1.23;;;10.00;99.90;;;;;;5162997;28;20515;-52
2023/03/31 03:17:30;;;;;;;4.03;1.40;;;9.90;99.90;;;;;;5159963;28;20440;-52
2023/03/31 03:20:07;;;;;;;2.13;1.20;;;10.00;99.90;;;;;;5159699;28;20436;-51
2023/03/31 03:22:39;;;;;;;1.47;1.10;;;10.00;99.90;;;;;;5162744;28;20441;-52
2023/03/31 03:25:12;;;;;;;3.17;1.40;;;10.00;99.90;;;;;;5162018;28;21515;-51
2023/03/31 03:27:43;;;;;;;1.50;1.00;;;10.00;99.90;;;;;;5162322;28;20510;-51
2023/03/31 03:30:14;;;;;;;3.00;1.20;;;10.00;99.90;;;;;;5161758;28;20472;-52
2023/03/31 03:32:45;;;;;;;1.20;1.10;;;10.00;99.90;;;;;;5160860;28;20621;-52
2023/03/31 03:35:15;;;;;;;3.23;1.43;;;10.00;99.90;;;;;;5160356;28;20660;-50
2023/03/31 03:37:46;;;;;;;1.50;1.03;;;10.00;99.90;;;;;;5163268;28;20483;-52
2023/03/31 03:40:17;;;;;;;1.00;0.90;;;10.10;99.90;;;;;;5160012;28;20520;-52
2023/03/31 03:42:48;;;;;;;1.10;1.00;;;10.10;99.90;;;;;;5162317;28;20685;-51
2023/03/31 03:45:18;;;;;;;4.23;0.87;;;10.10;99.90;;;;;;5161828;28;20445;-52
2023/03/31 03:47:49;;;;;;;3.27;1.43;;;10.10;99.90;;;;;;5158814;28;20259;-51
2023/03/31 03:50:19;;;;;;;0.70;0.70;;;10.10;99.90;;;;;;5161796;28;20256;-52
2023/03/31 03:52:50;;;;;;;4.63;1.30;;;10.20;99.90;;;;;;5161787;28;20181;-52
2023/03/31 03:55:21;;;;;;;4.93;1.17;;;10.20;99.90;;;;;;5160912;28;20181;-52
2023/03/31 03:57:52;;;;;;;2.83;0.80;;;10.20;99.90;;;;;;5164161;28;20223;-52
2023/03/31 04:00:23;;;;;;;4.67;1.20;;;10.20;99.90;;;;;;5160582;28;20447;-52
2023/03/31 04:02:53;;;;;;;3.53;1.23;;;10.30;99.90;;;;;;5161784;28;20180;-52
2023/03/31 04:05:24;;;;;;;1.23;1.03;;;10.30;99.90;;;;;;5163248;28;20198;-52
2023/03/31 04:07:55;;;;;;;3.93;1.03;;;10.20;99.90;;;;;;5160066;28;20236;-52
2023/03/31 04:10:25;;;;;;;0.80;0.80;;;10.20;99.90;;;;;;5158128;28;20594;-51
2023/03/31 04:12:56;;;;;;;2.43;1.00;;;10.20;99.90;;;;;;5165061;28;20181;-51
2023/03/31 04:15:27;;;;;;;3.93;1.53;;;10.20;99.90;;;;;;5163360;28;20180;-51
2023/03/31 04:17:57;;;;;;;7.60;1.40;;;10.20;99.90;;;;;;5162006;28;20288;-51
2023/03/31 04:20:30;;;;;;;9.40;1.43;;;10.20;99.90;;;;;;5160558;28;20181;-51
2023/03/31 04:23:01;;;;;;;1.40;1.10;;;10.20;99.90;;;;;;5162530;28;20192;-51
2023/03/31 04:25:32;;;;;;;1.47;0.90;;;10.20;99.90;;;;;;5160222;28;20443;-51
2023/03/31 04:28:05;;;;;;;2.23;1.10;;;10.10;99.90;;;;;;5165798;28;21010;-51
2023/03/31 04:30:38;;;;;;;3.07;1.70;;;10.20;99.90;;;;;;5162398;28;20629;-51
2023/03/31 04:33:09;;;;;;;1.73;1.63;;;10.10;99.90;;;;;;5164436;28;20467;-51
2023/03/31 04:35:48;;;;;;;6.33;1.30;;;10.20;99.90;;;;;;5165447;28;20468;-51
2023/03/31 04:38:22;;;;;;;5.80;1.87;;;10.10;99.90;;;;;;5165300;28;20225;-51
2023/03/31 04:40:53;;;;;;;3.33;1.53;;;10.10;99.90;;;;;;5165296;28;20431;-50
2023/03/31 04:43:23;;;;;;;4.60;1.70;;;10.10;99.90;;;;;;5167570;28;20462;-51
2023/03/31 04:45:54;;;;;;;3.47;2.07;;;10.20;99.90;;;;;;5165607;28;20181;-49
2023/03/31 04:48:25;;;;;;;6.60;1.80;;;10.10;99.90;;;;;;5166628;28;20227;-50
2023/03/31 04:50:55;;;;;;;2.57;1.60;;;10.20;99.90;;;;;;5171112;28;20181;-51
2023/03/31 04:53:26;;;;;;;5.20;1.60;;;10.20;99.90;;;;;;5165864;28;20523;-50
2023/03/31 04:55:57;;;;;;;5.30;1.47;;;10.20;99.90;;;;;;5162158;28;20593;-49
2023/03/31 04:58:27;;;;;;;4.73;1.80;;;10.20;99.90;;;;;;5144164;28;20247;-50
2023/03/31 05:00:58;;;;;;;2.10;1.37;;;10.20;99.90;;;;;;5164339;28;20181;-49
2023/03/31 05:03:29;;;;;;;1.90;1.60;;;10.30;99.90;;;;;;5162555;28;20187;-51
2023/03/31 05:06:00;;;;;;;1.60;1.50;;;10.30;99.90;;;;;;5157377;28;20194;-50
2023/03/31 05:08:31;;;;;;;2.97;2.10;;;10.30;99.90;;;;;;5162022;28;20266;-50
2023/03/31 05:11:02;;;;;;;4.73;2.00;;;10.30;99.90;;;;;;5162769;28;20471;-51
2023/03/31 05:13:33;;;;;;;2.33;1.33;;;10.30;99.90;;;;;;5162349;28;20239;-52
2023/03/31 05:16:13;;;;;;;3.93;1.60;;;10.40;99.90;;;;;;5162398;28;20443;-51
2023/03/31 05:18:45;;;;;;;8.47;1.90;;;10.30;99.90;;;;;;5156151;28;20308;-50
2023/03/31 05:21:18;;;;;;;3.23;1.60;;;10.40;99.90;;;;;;5163907;28;20522;-51
2023/03/31 05:23:48;;;;;;;3.33;1.57;;;10.40;99.90;;;;;;5165768;28;20475;-50
2023/03/31 05:26:21;;;;;;;7.20;1.43;;;10.40;99.90;;;;;;5166328;28;20837;-52
2023/03/31 05:28:52;;;;;;;2.83;1.00;;;10.40;99.90;;;;;;5163432;28;20625;-52
2023/03/31 05:31:23;;;;;;;3.27;1.70;;;10.30;99.90;;;;;;5166685;28;20454;-50
2023/03/31 05:33:54;;;;;;;1.87;1.40;;;10.20;99.90;;;;;;5165348;28;20940;-51
2023/03/31 05:36:25;;;;;;;4.77;1.50;;;10.30;99.90;;;;;;5163218;28;20212;-50
2023/03/31 05:38:56;;;;;;;4.23;1.77;;;10.30;99.90;;;;;;5164578;28;20251;-52
2023/03/31 05:41:27;;;;;;;1.77;1.30;;;10.60;99.90;;;;;;5163878;28;20444;-50
2023/03/31 05:43:58;;;;;;;11.37;2.30;;;10.80;99.90;;;;;;5166561;28;20552;-49
2023/03/31 05:46:29;;;;;;;4.10;1.70;;;11.00;99.90;;;;;;5163061;28;20432;-52
2023/03/31 05:49:00;;;;;;;4.97;1.83;;;11.20;99.90;;;;;;5153571;28;20470;-53
2023/03/31 05:51:30;;;;;;;3.03;1.30;;;11.60;99.90;;;;;;5166515;28;20189;-52
2023/03/31 05:54:01;;;;;;;4.43;2.23;;;12.40;99.90;;;;;;5169824;28;20552;-51
2023/03/31 05:56:32;;;;;;;3.30;1.93;;;13.40;99.90;;;;;;5164317;28;21443;-51
2023/03/31 05:59:02;;;;;;;11.23;4.57;;;14.90;99.90;;;;;;5165073;28;20219;-54
2023/03/31 06:01:33;;;;;;;6.43;3.50;;;15.70;99.90;;;;;;5170317;28;20200;-51
2023/03/31 06:04:04;;;;;;;10.03;4.60;;;15.70;99.90;;;;;;5168895;28;20267;-51
2023/03/31 06:06:36;;;;;;;10.70;3.57;;;15.40;99.90;;;;;;5167129;28;20691;-52
2023/03/31 06:09:07;;;;;;;7.90;2.60;;;14.80;99.90;;;;;;5166877;28;20688;-54
2023/03/31 06:11:38;;;;;;;2.37;2.17;;;14.20;99.90;;;;;;5166237;28;20452;-53
2023/03/31 06:14:08;;;;;;;7.40;2.40;;;13.70;99.90;;;;;;5164553;28;20251;-52
2023/03/31 06:16:39;;;;;;;2.60;2.07;;;13.20;99.90;;;;;;5164915;28;20182;-52
2023/03/31 06:19:10;;;;;;;2.43;1.93;;;12.80;99.90;;;;;;5164894;28;20255;-52
2023/03/31 06:21:40;;;;;;;7.30;2.27;;;12.40;99.90;;;;;;5163275;28;20239;-51
2023/03/31 06:24:11;;;;;;;6.83;2.83;;;12.30;99.90;;;;;;5159460;28;20181;-52
2023/03/31 06:26:41;;;;;;;7.97;2.43;;;12.20;99.90;;;;;;5163242;28;20277;-51
2023/03/31 06:29:12;;;;;;;8.60;3.03;;;12.30;99.90;;;;;;5159875;28;20235;-52
2023/03/31 06:31:43;;;;;;;3.63;3.10;;;12.40;99.90;;;;;;5164953;28;20260;-51
2023/03/31 06:34:13;;;;;;;7.00;2.77;;;12.60;99.90;;;;;;5165969;28;20181;-51
2023/03/31 06:36:44;;;;;;;6.23;2.47;;;12.90;99.90;;;;;;5162506;28;20185;-52
2023/03/31 06:39:15;;;;;;;8.27;2.40;;;13.80;99.90;;;;;;5152733;28;20752;-51
2023/03/31 06:41:45;;;;;;;4.00;2.50;;;14.60;99.90;;;;;;5159667;28;20192;-52
2023/03/31 06:44:18;;;;;;;4.87;2.80;;;15.60;99.90;;;;;;5161240;28;20241;-54
2023/03/31 06:46:48;;;;;;;6.97;2.40;;;17.10;99.90;;;;;;5160788;28;20200;-52
2023/03/31 06:49:19;;;;;;;10.67;3.00;;;18.00;99.90;;;;;;5153366;28;20444;-54
2023/03/31 06:51:50;;;;;;;7.07;1.90;;;18.70;97.60;;;;;;5159973;28;20177;-54
2023/03/31 06:54:20;;;;;;;3.60;1.80;;;19.50;93.20;;;;;;5159696;28;20177;-54
2023/03/31 06:56:51;;;;;;;7.60;4.90;;;20.00;85.00;;;;;;5157392;28;20263;-53
2023/03/31 06:59:22;;;;;;;9.97;3.27;;;19.80;80.90;;;;;;5156830;28;20655;-52
2023/03/31 07:01:52;;;;;;;6.43;2.40;;;19.50;78.80;;;;;;5157543;28;20243;-54
2023/03/31 07:04:23;;;;;;;11.10;5.20;;;19.90;80.40;;;;;;5155442;28;20243;-54
2023/03/31 07:06:53;;;;;;;7.10;3.00;;;21.50;67.10;;;;;;5157456;28;20274;-54
2023/03/31 07:09:24;;;;;;;4.57;2.60;;;23.00;59.20;;;;;;5158930;28;20235;-52
2023/03/31 07:11:55;;;;;;;6.73;2.70;;;24.50;53.60;;;;;;5157719;28;20186;-52
2023/03/31 07:14:25;;;;;;;7.60;2.00;;;25.90;48.40;;;;;;5160269;28;20181;-52
2023/03/31 07:16:56;;;;;;;7.50;2.20;;;26.00;45.90;;;;;;5153773;28;20884;-53
2023/03/31 07:19:27;;;;;;;5.17;4.50;;;26.30;44.80;;;;;;5158816;28;20177;-54
2023/03/31 07:21:58;;;;;;;6.50;3.70;;;25.00;46.00;;;;;;5158490;28;20192;-52
2023/03/31 07:24:29;;;;;;;4.33;3.10;;;23.30;48.70;;;;;;5157779;28;20189;-52
2023/03/31 07:26:59;;;;;;;5.33;3.70;;;22.20;51.20;;;;;;5159798;28;20752;-53
2023/03/31 07:29:30;;;;;;;9.63;5.17;;;22.00;53.60;;;;;;5161854;28;20519;-54
2023/03/31 07:32:01;;;;;;;4.53;2.27;;;23.10;50.50;;;;;;5155592;28;20189;-54
2023/03/31 07:34:31;;;;;;;9.00;5.50;;;23.30;50.70;;;;;;5161327;28;20185;-53
2023/03/31 07:37:02;;;;;;;10.57;3.40;;;23.10;49.80;;;;;;5162983;28;20195;-53
2023/03/31 07:39:35;;;;;;;8.03;3.83;;;22.50;50.60;;;;;;5159076;28;20199;-54
2023/03/31 07:42:06;;;;;;;4.77;2.73;;;21.70;52.00;;;;;;5159382;28;20187;-54
2023/03/31 07:44:37;;;;;;;5.30;4.10;;;20.70;54.60;;;;;;5158499;28;20971;-52
2023/03/31 07:47:08;;;;;;;5.00;2.47;;;20.10;55.30;;;;;;5155109;28;20207;-54
2023/03/31 07:49:38;;;;;;;10.97;4.30;;;20.10;55.20;;;;;;5156965;28;21010;-53
2023/03/31 07:52:09;;;;;;;6.80;4.03;;;20.10;56.30;;;;;;5160295;28;20177;-52
2023/03/31 07:54:39;;;;;;;7.07;3.77;;;20.20;57.30;;;;;;5159079;28;20547;-53
2023/03/31 07:57:10;;;;;;;4.20;2.47;;;21.50;55.40;;;;;;5162997;28;20224;-55
2023/03/31 07:59:41;;;;;;;3.13;1.97;;;23.10;52.80;;;;;;5156736;28;20211;-53
2023/03/31 08:02:13;;;;;;;5.93;3.43;;;24.50;49.80;;;;;;5154675;28;20185;-53
2023/03/31 08:04:45;;;;;;;9.63;2.43;;;26.00;45.70;;;;;;5152906;28;20661;-52
2023/03/31 08:07:16;;;;;;;6.33;3.90;;;25.90;44.30;;;;;;5154920;28;20846;-54
2023/03/31 08:09:46;;;;;;;8.00;3.13;;;25.00;45.60;;;;;;5153877;28;20441;-54
2023/03/31 08:12:17;;;;;;;10.40;2.10;;;23.30;48.30;;;;;;5156545;28;20208;-52
2023/03/31 08:14:48;;;;;;;6.53;2.40;;;22.20;50.80;;;;;;5152400;28;20700;-53
2023/03/31 08:17:18;;;;;;;9.53;5.50;;;21.40;52.40;;;;;;5154041;28;20279;-54
2023/03/31 08:19:50;;;;;;;6.53;3.50;;;20.50;53.80;;;;;;5144008;28;20270;-52
2023/03/31 08:22:22;;;;;;;9.80;2.90;;;19.90;56.00;;;;;;5159758;28;20268;-52
2023/03/31 08:24:52;;;;;;;13.53;3.80;;;19.20;57.90;;;;;;5150471;28;20446;-55
2023/03/31 08:27:24;;;;;;;26.60;13.60;;;18.80;60.70;;;;;;5153768;28;20476;-53
2023/03/31 08:29:55;;;;;;;16.20;5.70;;;18.70;60.50;;;;;;5138002;28;20188;-53
2023/03/31 08:32:26;;;;;;;34.23;19.93;;;18.60;64.30;;;;;;5157751;28;20430;-54
2023/03/31 08:34:56;;;;;;;26.50;13.30;;;18.50;64.30;;;;;;5158111;28;20184;-55
2023/03/31 08:37:27;;;;;;;16.93;8.37;;;18.60;66.40;;;;;;5156393;28;20767;-52
2023/03/31 08:39:59;;;;;;;24.63;13.10;;;18.50;65.40;;;;;;5161753;28;20216;-53
2023/03/31 08:42:29;;;;;;;9.20;5.67;;;18.10;67.20;;;;;;5158215;28;20208;-53
2023/03/31 08:45:11;;;;;;;6.73;5.30;;;17.80;70.90;;;;;;5154725;28;20432;-52
2023/03/31 08:47:43;;;;;;;3.47;2.53;;;17.70;71.80;;;;;;5171917;28;20244;-51
2023/03/31 08:50:21;;;;;;;7.83;4.60;;;17.80;74.80;;;;;;5157355;28;20451;-52
2023/03/31 08:53:06;;;;;;;9.07;4.90;;;17.90;75.00;;;;;;5157493;28;20444;-53
2023/03/31 08:55:49;;;;;;;8.30;4.90;;;18.20;73.90;;;;;;5154291;28;20515;-53
2023/03/31 08:58:20;;;;;;;6.67;3.60;;;18.30;72.60;;;;;;5152117;28;20903;-57
2023/03/31 09:01:06;;;;;;;8.30;4.17;;;18.30;71.40;;;;;;5159002;28;20527;-53
2023/03/31 09:04:05;;;;;;;7.90;3.90;;;18.10;71.80;;;;;;5152536;28;20185;-52
2023/03/31 09:06:42;;;;;;;4.50;2.57;;;17.80;73.60;;;;;;5156229;28;20475;-55
2023/03/31 09:09:44;;;;;;;8.17;4.20;;;17.60;77.50;;;;;;5156317;28;20461;-53
2023/03/31 09:12:37;;;;;;;7.73;2.70;;;17.30;82.20;;;;;;5156307;28;20431;-51
2023/03/31 09:15:31;;;;;;;8.53;2.40;;;17.20;82.40;;;;;;5161219;28;20773;-52
2023/03/31 09:18:25;;;;;;;3.17;2.77;;;17.40;85.10;;;;;;5157667;28;20467;-52
2023/03/31 09:21:06;;;;;;;7.20;1.80;;;17.80;82.90;;;;;;5161913;28;20462;-52
2023/03/31 09:24:03;;;;;;;6.70;2.10;;;17.70;82.40;;;;;;5164447;28;20440;-54
2023/03/31 09:26:43;;;;;;;8.33;2.80;;;18.00;85.80;;;;;;5163475;28;20502;-52
2023/03/31 09:29:36;;;;;;;5.57;3.10;;;18.40;82.60;;;;;;5163227;28;20490;-52
2023/03/31 09:32:16;;;;;;;12.60;3.00;;;18.80;80.40;;;;;;5159797;28;20431;-54
2023/03/31 09:34:52;;;;;;;8.20;2.43;;;19.30;76.50;;;;;;5165637;28;20833;-52
2023/03/31 09:37:28;;;;;;;3.60;1.80;;;19.70;73.90;;;;;;5164395;28;20455;-52
2023/03/31 09:40:06;;;;;;;6.13;2.30;;;20.20;68.30;;;;;;5161575;28;20446;-52
2023/03/31 09:42:37;;;;;;;5.20;2.50;;;20.40;65.00;;;;;;5156505;28;20459;-54
2023/03/31 09:45:15;;;;;;;6.40;1.50;;;20.20;65.90;;;;;;5152134;28;20447;-52
2023/03/31 09:47:57;;;;;;;1.70;1.33;;;19.80;65.00;;;;;;5146586;28;21136;-54
2023/03/31 09:50:30;;;;;;;1.90;1.53;;;19.20;65.80;;;;;;5159895;28;20456;-51
2023/03/31 09:53:04;;;;;;;6.20;1.67;;;18.60;65.60;;;;;;5156611;28;20451;-52
2023/03/31 09:55:46;;;;;;;2.80;1.47;;;18.40;68.90;;;;;;5156486;28;20429;-53
2023/03/31 09:58:17;;;;;;;3.40;1.80;;;18.00;70.50;;;;;;5166772;28;20518;-53
2023/03/31 10:01:00;;;;;;;2.37;1.63;;;17.70;73.90;;;;;;5154637;28;20530;-53
2023/03/31 10:03:35;;;;;;;5.30;1.50;;;17.70;76.70;;;;;;5160118;28;20518;-52
2023/03/31 10:06:10;;;;;;;4.30;2.30;;;17.30;79.40;;;;;;5152090;28;20939;-53
2023/03/31 10:08:47;;;;;;;6.50;2.03;;;17.10;82.90;;;;;;5154728;28;20495;-53
2023/03/31 10:11:18;;;;;;;4.43;2.00;;;16.80;84.60;;;;;;5158656;28;20982;-52
2023/03/31 10:14:13;;;;;;;2.90;2.10;;;16.70;89.20;;;;;;5159601;28;20478;-51
2023/03/31 10:16:48;;;;;;;3.23;1.80;;;16.50;92.00;;;;;;5154565;28;20452;-53
2023/03/31 10:19:22;;;;;;;2.10;1.50;;;16.40;93.10;;;;;;5157619;28;20471;-55
2023/03/31 10:22:04;;;;;;;2.83;1.53;;;16.40;93.90;;;;;;5162371;28;20905;-51
2023/03/31 10:24:40;;;;;;;7.67;1.63;;;16.20;93.90;;;;;;5154824;28;20441;-53
2023/03/31 10:27:21;;;;;;;4.40;1.90;;;16.10;94.40;;;;;;5158853;28;20533;-53
2023/03/31 10:29:55;;;;;;;5.93;2.30;;;15.80;96.30;;;;;;5160081;28;20796;-52
2023/03/31 10:32:37;;;;;;;6.50;1.70;;;15.60;99.90;;;;;;5163713;28;20824;-52
2023/03/31 10:35:23;;;;;;;2.00;1.30;;;15.30;99.90;;;;;;5158730;28;20995;-52
2023/03/31 10:37:57;;;;;;;3.10;1.23;;;15.20;99.90;;;;;;5163835;28;20858;-51
2023/03/31 10:40:31;;;;;;;2.67;1.80;;;15.30;99.90;;;;;;5162982;28;20467;-53
2023/03/31 10:43:13;;;;;;;3.90;1.50;;;15.40;99.90;;;;;;5161285;28;20800;-51
2023/03/31 10:45:47;;;;;;;6.47;2.23;;;15.60;99.90;;;;;;5162788;28;20448;-53
2023/03/31 10:48:30;;;;;;;4.53;2.30;;;15.70;99.90;;;;;;5159913;28;20471;-52
2023/03/31 10:51:17;;;;;;;2.60;2.03;;;15.90;99.90;;;;;;5160902;28;20428;-53
2023/03/31 10:53:51;;;;;;;5.67;2.80;;;16.10;99.90;;;;;;5158742;28;21185;-53
2023/03/31 10:56:42;;;;;;;5.70;2.17;;;16.20;99.90;;;;;;5154163;28;20524;-53
2023/03/31 10:59:35;;;;;;;9.53;2.47;;;16.40;99.90;;;;;;5176351;28;20448;-53
2023/03/31 11:02:08;;;;;;;1.80;1.70;;;16.60;99.90;;;;;;5154845;28;20792;-53
2023/03/31 11:05:14;;;;;;;7.37;2.20;;;16.60;99.90;;;;;;5160974;28;20443;-54
2023/03/31 11:08:15;;;;;;;3.23;2.10;;;16.60;99.90;;;;;;5169851;28;20508;-53
2023/03/31 11:11:23;;;;;;;2.03;1.80;;;16.80;99.90;;;;;;5160452;28;20554;-54
2023/03/31 11:13:57;;;;;;;4.33;1.93;;;16.70;99.90;;;;;;5163753;28;20444;-55
2023/03/31 11:16:52;;;;;;;2.20;1.90;;;16.60;99.90;;;;;;5162538;28;20432;-55
2023/03/31 11:19:46;;;;;;;4.17;2.10;;;16.80;99.90;;;;;;5162046;28;20486;-53
2023/03/31 11:22:59;;;;;;;2.53;1.70;;;17.20;99.90;;;;;;5166457;28;20549;-54
2023/03/31 11:25:46;;;;;;;2.63;1.60;;;17.30;99.90;;;;;;5161468;28;20490;-56
2023/03/31 11:28:46;;;;;;;2.43;2.03;;;17.50;99.90;;;;;;5162090;28;20475;-55
2023/03/31 11:31:46;;;;;;;3.50;1.30;;;17.30;99.90;;;;;;5155870;28;20539;-54
2023/03/31 11:34:43;;;;;;;5.60;1.60;;;17.30;99.90;;;;;;5159935;28;20444;-55
2023/03/31 11:37:35;;;;;;;7.93;2.03;;;17.40;99.90;;;;;;5162553;28;20530;-55
2023/03/31 11:40:21;;;;;;;2.90;1.67;;;17.70;99.90;;;;;;5156060;28;20444;-54
2023/03/31 11:43:10;;;;;;;3.47;2.20;;;17.80;99.90;;;;;;5161871;28;20471;-54
2023/03/31 11:45:50;;;;;;;4.43;1.73;;;17.70;99.90;;;;;;5165149;28;20436;-54
2023/03/31 11:48:48;;;;;;;3.33;1.80;;;17.80;99.90;;;;;;5160250;28;20518;-54
2023/03/31 11:51:25;;;;;;;4.80;2.30;;;17.80;99.60;;;;;;5161174;28;20432;-53
2023/03/31 11:53:58;;;;;;;4.97;2.00;;;17.60;99.20;;;;;;5162320;28;20432;-52
2023/03/31 11:56:35;;;;;;;3.83;2.00;;;17.70;99.90;;;;;;5158670;28;20470;-53
2023/03/31 11:59:13;;;;;;;4.17;1.60;;;17.60;99.80;;;;;;5163911;28;20896;-53
2023/03/31 12:01:55;;;;;;;5.83;2.53;;;17.70;99.50;;;;;;5157714;28;20951;-52
2023/03/31 12:04:44;;;;;;;1.67;1.43;;;17.60;98.70;;;;;;5155368;28;20452;-52
2023/03/31 12:07:18;;;;;;;1.80;1.70;;;17.40;98.30;;;;;;5153980;28;20527;-54
2023/03/31 12:10:04;;;;;;;2.30;2.10;;;17.50;99.50;;;;;;5157221;28;20432;-54
2023/03/31 12:12:41;;;;;;;5.70;1.87;;;17.50;99.10;;;;;;5158780;28;20444;-53
2023/03/31 12:15:32;;;;;;;2.73;2.37;;;17.50;99.00;;;;;;5157323;28;20484;-52
2023/03/31 12:18:13;;;;;;;10.47;1.93;;;17.10;99.30;;;;;;5154571;28;20489;-52
2023/03/31 12:20:51;;;;;;;6.23;2.30;;;16.40;99.90;;;;;;5153522;28;20479;-53
2023/03/31 12:23:26;;;;;;;2.83;2.47;;;15.40;99.90;;;;;;5166682;28;20893;-54
2023/03/31 12:26:38;;;;;;;8.60;2.93;;;14.60;99.90;;;;;;5157088;28;20456;-53
2023/03/31 12:29:20;;;;;;;3.23;2.53;;;14.20;99.90;;;;;;5156917;28;20827;-54
2023/03/31 12:31:55;;;;;;;3.03;2.77;;;13.70;99.90;;;;;;5156923;28;20933;-55
2023/03/31 12:34:28;;;;;;;9.93;3.17;;;13.50;99.90;;;;;;5156856;28;20474;-54
2023/03/31 12:37:09;;;;;;;3.20;2.27;;;13.60;99.90;;;;;;5155357;28;20452;-57
2023/03/31 12:40:08;;;;;;;6.77;3.10;;;13.60;99.90;;;;;;5151336;28;20479;-54
2023/03/31 12:43:05;;;;;;;2.90;2.70;;;13.80;99.90;;;;;;5174647;28;20450;-55
2023/03/31 12:45:42;;;;;;;6.07;2.67;;;14.00;99.90;;;;;;5147318;28;20475;-53
2023/03/31 12:48:48;;;;;;;10.27;4.27;;;14.00;99.90;;;;;;5159147;28;20972;-53
2023/03/31 12:51:39;;;;;;;12.53;4.77;;;14.00;99.90;;;;;;5160358;28;20924;-52
2023/03/31 12:54:26;;;;;;;3.40;3.00;;;13.90;99.90;;;;;;5157776;28;20452;-53
2023/03/31 12:57:02;;;;;;;3.83;2.03;;;13.60;99.90;;;;;;5154772;28;20444;-53
2023/03/31 12:59:34;;;;;;;2.40;2.20;;;13.30;99.90;;;;;;5160051;28;20530;-53
2023/03/31 13:02:20;;;;;;;2.90;1.67;;;13.10;99.90;;;;;;5159389;28;20451;-52
2023/03/31 13:04:52;;;;;;;1.53;1.43;;;12.80;99.90;;;;;;5153737;28;21018;-52
2023/03/31 13:07:25;;;;;;;5.07;1.83;;;12.70;99.90;;;;;;5170600;28;20992;-55
2023/03/31 13:09:58;;;;;;;1.80;1.23;;;12.50;99.90;;;;;;5159156;28;20551;-53
2023/03/31 13:12:31;;;;;;;3.13;1.30;;;12.40;99.90;;;;;;5141072;28;20480;-53
2023/03/31 13:15:04;;;;;;;2.33;1.30;;;12.40;99.90;;;;;;5161442;28;20450;-54
2023/03/31 13:17:35;;;;;;;3.03;1.87;;;12.20;99.90;;;;;;5161720;28;20638;-54
2023/03/31 13:20:29;;;;;;;5.43;1.97;;;12.10;99.90;;;;;;5160339;28;20530;-52
2023/03/31 13:23:02;;;;;;;2.50;2.13;;;12.00;99.90;;;;;;5160283;28;20462;-55
2023/03/31 13:25:47;;;;;;;3.07;2.83;;;12.00;99.90;;;;;;5161445;28;20479;-54
2023/03/31 13:28:20;;;;;;;4.47;3.10;;;12.00;99.90;;;;;;5162543;28;20467;-52
2023/03/31 13:30:54;;;;;;;2.97;2.10;;;12.20;99.90;;;;;;5159183;28;20502;-54
2023/03/31 13:33:44;;;;;;;8.23;2.87;;;11.90;99.90;;;;;;5144612;28;20543;-54
2023/03/31 13:36:33;;;;;;;7.03;3.60;;;11.90;99.90;;;;;;5162780;28;20456;-53
2023/03/31 13:39:29;;;;;;;5.80;3.30;;;11.90;99.90;;;;;;5154451;28;20481;-54